sensor_id;sensor_type;location;lat;lon;timestamp;P1;durP1;ratioP1;P2;durP2;ratioP2
52888;SDS011;41413;52.770;6.892;2023-09-07T00:01:36;1999.90;;;999.90;;
52888;SDS011;41413;52.770;6.892;2023-09-07T00:04:03;1999.90;;;999.90;;
52888;SDS011;41413;52.770;6.892;2023-09-07T00:06:31;1999.90;;;999.90;;
52888;SDS011;41413;52.770;6.892;2023-09-07T00:08:58;1999.90;;;999.90;;
52888;SDS011;41413;52.770;6.892;2023-09-07T00:11:25;1999.90;;;999.90;;
52888;SDS011;41413;52.770;6.892;2023-09-07T00:13:51;1999.90;;;999.90;;
52888;SDS011;41413;52.770;6.892;2023-09-07T00:16:18;1999.90;;;999.90;;
52888;SDS011;41413;52.770;6.892;2023-09-07T00:18:45;1999.90;;;999.90;;
52888;SDS011;41413;52.770;6.892;2023-09-07T00:21:12;1999.90;;;999.90;;
52888;SDS011;41413;52.770;6.892;2023-09-07T00:23:39;1999.90;;;999.90;;
52888;SDS011;41413;52.770;6.892;2023-09-07T00:26:06;1999.90;;;999.90;;
52888;SDS011;41413;52.770;6.892;2023-09-07T00:28:33;1999.90;;;999.90;;
52888;SDS011;41413;52.770;6.892;2023-09-07T00:31:00;1999.90;;;999.90;;
52888;SDS011;41413;52.770;6.892;2023-09-07T00:33:27;1999.90;;;999.90;;
52888;SDS011;41413;52.770;6.892;2023-09-07T00:35:54;1999.90;;;999.90;;
52888;SDS011;41413;52.770;6.892;2023-09-07T00:38:21;1999.90;;;999.90;;
52888;SDS011;41413;52.770;6.892;2023-09-07T00:40:48;1999.90;;;999.90;;
52888;SDS011;41413;52.770;6.892;2023-09-07T00:43:14;1999.90;;;999.90;;
52888;SDS011;41413;52.770;6.892;2023-09-07T00:45:41;1999.90;;;999.90;;
52888;SDS011;41413;52.770;6.892;2023-09-07T00:48:08;1999.90;;;999.90;;
52888;SDS011;41413;52.770;6.892;2023-09-07T00:50:37;1999.90;;;999.90;;
52888;SDS011;41413;52.770;6.892;2023-09-07T00:53:05;1999.90;;;999.90;;
52888;SDS011;41413;52.770;6.892;2023-09-07T00:55:32;1999.90;;;999.90;;
52888;SDS011;41413;52.770;6.892;2023-09-07T00:58:01;1999.90;;;999.90;;
52888;SDS011;41413;52.770;6.892;2023-09-07T01:00:29;1999.90;;;999.90;;
52888;SDS011;41413;52.770;6.892;2023-09-07T01:02:56;1999.90;;;999.90;;
52888;SDS011;41413;52.770;6.892;2023-09-07T01:05:34;1999.90;;;999.90;;
52888;SDS011;41413;52.770;6.892;2023-09-07T01:08:24;1999.90;;;999.90;;
52888;SDS011;41413;52.770;6.892;2023-09-07T01:10:55;1999.90;;;999.90;;
52888;SDS011;41413;52.770;6.892;2023-09-07T01:13:22;1999.90;;;999.90;;
52888;SDS011;41413;52.770;6.892;2023-09-07T01:15:49;1999.90;;;999.90;;
52888;SDS011;41413;52.770;6.892;2023-09-07T01:18:16;1999.90;;;999.90;;
52888;SDS011;41413;52.770;6.892;2023-09-07T01:20:48;1999.90;;;999.90;;
52888;SDS011;41413;52.770;6.892;2023-09-07T01:23:15;1999.90;;;999.90;;
52888;SDS011;41413;52.770;6.892;2023-09-07T01:25:42;1999.90;;;999.90;;
52888;SDS011;41413;52.770;6.892;2023-09-07T01:28:09;1999.90;;;999.90;;
52888;SDS011;41413;52.770;6.892;2023-09-07T01:30:36;1999.90;;;999.90;;
52888;SDS011;41413;52.770;6.892;2023-09-07T01:33:05;1999.90;;;999.90;;
52888;SDS011;41413;52.770;6.892;2023-09-07T01:35:32;1999.90;;;999.90;;
52888;SDS011;41413;52.770;6.892;2023-09-07T01:38:00;1999.90;;;999.90;;
52888;SDS011;41413;52.770;6.892;2023-09-07T01:40:28;1999.90;;;999.90;;
52888;SDS011;41413;52.770;6.892;2023-09-07T01:42:55;1999.90;;;999.90;;
52888;SDS011;41413;52.770;6.892;2023-09-07T01:45:22;1999.90;;;999.90;;
52888;SDS011;41413;52.770;6.892;2023-09-07T01:47:50;1999.90;;;999.90;;
52888;SDS011;41413;52.770;6.892;2023-09-07T01:50:18;1999.90;;;999.90;;
52888;SDS011;41413;52.770;6.892;2023-09-07T01:52:46;1999.90;;;999.90;;
52888;SDS011;41413;52.770;6.892;2023-09-07T01:55:14;1999.90;;;999.90;;
52888;SDS011;41413;52.770;6.892;2023-09-07T01:57:41;1999.90;;;999.90;;
52888;SDS011;41413;52.770;6.892;2023-09-07T02:00:09;1999.90;;;999.90;;
52888;SDS011;41413;52.770;6.892;2023-09-07T02:02:37;1999.90;;;999.90;;
52888;SDS011;41413;52.770;6.892;2023-09-07T02:05:04;1999.90;;;999.90;;
52888;SDS011;41413;52.770;6.892;2023-09-07T02:07:31;1999.90;;;999.90;;
52888;SDS011;41413;52.770;6.892;2023-09-07T02:09:58;1999.90;;;999.90;;
52888;SDS011;41413;52.770;6.892;2023-09-07T02:12:25;1999.90;;;999.90;;
52888;SDS011;41413;52.770;6.892;2023-09-07T02:14:52;1999.90;;;999.90;;
52888;SDS011;41413;52.770;6.892;2023-09-07T02:17:19;1999.90;;;999.90;;
52888;SDS011;41413;52.770;6.892;2023-09-07T02:19:47;1999.90;;;999.90;;
52888;SDS011;41413;52.770;6.892;2023-09-07T02:22:14;1999.90;;;999.90;;
52888;SDS011;41413;52.770;6.892;2023-09-07T02:24:41;1999.90;;;999.90;;
52888;SDS011;41413;52.770;6.892;2023-09-07T02:27:08;1999.90;;;999.90;;
52888;SDS011;41413;52.770;6.892;2023-09-07T02:29:34;1999.90;;;999.90;;
52888;SDS011;41413;52.770;6.892;2023-09-07T02:32:01;1999.90;;;999.90;;
52888;SDS011;41413;52.770;6.892;2023-09-07T02:34:29;1999.90;;;999.90;;
52888;SDS011;41413;52.770;6.892;2023-09-07T02:36:56;1999.90;;;999.90;;
52888;SDS011;41413;52.770;6.892;2023-09-07T02:39:23;1999.90;;;999.90;;
52888;SDS011;41413;52.770;6.892;2023-09-07T02:41:52;1999.90;;;999.90;;
52888;SDS011;41413;52.770;6.892;2023-09-07T02:44:19;1999.90;;;999.90;;
52888;SDS011;41413;52.770;6.892;2023-09-07T02:46:46;1999.90;;;999.90;;
52888;SDS011;41413;52.770;6.892;2023-09-07T02:49:13;1999.90;;;999.90;;
52888;SDS011;41413;52.770;6.892;2023-09-07T02:51:40;1999.90;;;999.90;;
52888;SDS011;41413;52.770;6.892;2023-09-07T02:54:06;1999.90;;;999.90;;
52888;SDS011;41413;52.770;6.892;2023-09-07T02:56:33;1999.90;;;999.90;;
52888;SDS011;41413;52.770;6.892;2023-09-07T02:59:00;1999.90;;;999.90;;
52888;SDS011;41413;52.770;6.892;2023-09-07T03:01:27;1999.90;;;999.90;;
52888;SDS011;41413;52.770;6.892;2023-09-07T03:03:54;1999.90;;;999.90;;
52888;SDS011;41413;52.770;6.892;2023-09-07T03:06:20;1999.90;;;999.90;;
52888;SDS011;41413;52.770;6.892;2023-09-07T03:08:47;1999.90;;;999.90;;
52888;SDS011;41413;52.770;6.892;2023-09-07T03:11:14;1999.90;;;999.90;;
52888;SDS011;41413;52.770;6.892;2023-09-07T03:13:41;1999.90;;;999.90;;
52888;SDS011;41413;52.770;6.892;2023-09-07T03:16:09;1999.90;;;999.90;;
52888;SDS011;41413;52.770;6.892;2023-09-07T03:18:35;1999.90;;;999.90;;
52888;SDS011;41413;52.770;6.892;2023-09-07T03:21:03;1999.90;;;999.90;;
52888;SDS011;41413;52.770;6.892;2023-09-07T03:23:31;1999.90;;;999.90;;
52888;SDS011;41413;52.770;6.892;2023-09-07T03:25:59;1999.90;;;999.90;;
52888;SDS011;41413;52.770;6.892;2023-09-07T03:28:25;1999.90;;;999.90;;
52888;SDS011;41413;52.770;6.892;2023-09-07T03:30:55;1999.90;;;999.90;;
52888;SDS011;41413;52.770;6.892;2023-09-07T03:33:22;1999.90;;;999.90;;
52888;SDS011;41413;52.770;6.892;2023-09-07T03:35:49;1999.90;;;999.90;;
52888;SDS011;41413;52.770;6.892;2023-09-07T03:38:18;1999.90;;;999.90;;
52888;SDS011;41413;52.770;6.892;2023-09-07T03:40:45;1999.90;;;999.90;;
52888;SDS011;41413;52.770;6.892;2023-09-07T03:43:11;1999.90;;;999.90;;
52888;SDS011;41413;52.770;6.892;2023-09-07T03:45:38;1999.90;;;999.90;;
52888;SDS011;41413;52.770;6.892;2023-09-07T03:48:05;1999.90;;;999.90;;
52888;SDS011;41413;52.770;6.892;2023-09-07T03:50:32;1999.90;;;999.90;;
52888;SDS011;41413;52.770;6.892;2023-09-07T03:52:59;1999.90;;;999.90;;
52888;SDS011;41413;52.770;6.892;2023-09-07T03:55:26;1999.90;;;999.90;;
52888;SDS011;41413;52.770;6.892;2023-09-07T03:57:52;1999.90;;;999.90;;
52888;SDS011;41413;52.770;6.892;2023-09-07T04:00:19;1999.90;;;999.90;;
52888;SDS011;41413;52.770;6.892;2023-09-07T04:02:46;1999.90;;;999.90;;
52888;SDS011;41413;52.770;6.892;2023-09-07T04:05:13;1999.90;;;999.90;;
52888;SDS011;41413;52.770;6.892;2023-09-07T04:07:40;1999.90;;;999.90;;
52888;SDS011;41413;52.770;6.892;2023-09-07T04:10:07;1999.90;;;999.90;;
52888;SDS011;41413;52.770;6.892;2023-09-07T04:12:34;1999.90;;;999.90;;
52888;SDS011;41413;52.770;6.892;2023-09-07T04:15:01;1999.90;;;999.90;;
52888;SDS011;41413;52.770;6.892;2023-09-07T04:17:29;1999.90;;;999.90;;
52888;SDS011;41413;52.770;6.892;2023-09-07T04:19:56;1999.90;;;999.90;;
52888;SDS011;41413;52.770;6.892;2023-09-07T04:22:22;1999.90;;;999.90;;
52888;SDS011;41413;52.770;6.892;2023-09-07T04:24:49;1999.90;;;999.90;;
52888;SDS011;41413;52.770;6.892;2023-09-07T04:27:16;1999.90;;;999.90;;
52888;SDS011;41413;52.770;6.892;2023-09-07T04:29:43;1999.90;;;999.90;;
52888;SDS011;41413;52.770;6.892;2023-09-07T04:32:10;1999.90;;;999.90;;
52888;SDS011;41413;52.770;6.892;2023-09-07T04:34:37;1999.90;;;999.90;;
52888;SDS011;41413;52.770;6.892;2023-09-07T04:37:03;1999.90;;;999.90;;
52888;SDS011;41413;52.770;6.892;2023-09-07T04:39:30;1999.90;;;999.90;;
52888;SDS011;41413;52.770;6.892;2023-09-07T04:41:57;1999.90;;;999.90;;
52888;SDS011;41413;52.770;6.892;2023-09-07T04:44:25;1999.90;;;999.90;;
52888;SDS011;41413;52.770;6.892;2023-09-07T04:46:56;1999.90;;;999.90;;
52888;SDS011;41413;52.770;6.892;2023-09-07T04:49:23;1999.90;;;999.90;;
52888;SDS011;41413;52.770;6.892;2023-09-07T04:51:52;1999.90;;;999.90;;
52888;SDS011;41413;52.770;6.892;2023-09-07T04:54:20;1999.90;;;999.90;;
52888;SDS011;41413;52.770;6.892;2023-09-07T04:56:47;1999.90;;;999.90;;
52888;SDS011;41413;52.770;6.892;2023-09-07T04:59:14;1999.90;;;999.90;;
52888;SDS011;41413;52.770;6.892;2023-09-07T05:01:41;1999.90;;;999.90;;
52888;SDS011;41413;52.770;6.892;2023-09-07T05:04:08;1999.90;;;999.90;;
52888;SDS011;41413;52.770;6.892;2023-09-07T05:06:35;1999.90;;;999.90;;
52888;SDS011;41413;52.770;6.892;2023-09-07T05:09:03;1999.90;;;999.90;;
52888;SDS011;41413;52.770;6.892;2023-09-07T05:11:30;1999.90;;;999.90;;
52888;SDS011;41413;52.770;6.892;2023-09-07T05:14:00;1999.90;;;999.90;;
52888;SDS011;41413;52.770;6.892;2023-09-07T05:16:28;1999.90;;;999.90;;
52888;SDS011;41413;52.770;6.892;2023-09-07T05:18:55;1999.90;;;999.90;;
52888;SDS011;41413;52.770;6.892;2023-09-07T05:21:22;1999.90;;;999.90;;
52888;SDS011;41413;52.770;6.892;2023-09-07T05:23:49;1999.90;;;999.90;;
52888;SDS011;41413;52.770;6.892;2023-09-07T05:26:20;1999.90;;;999.90;;
52888;SDS011;41413;52.770;6.892;2023-09-07T05:28:48;1999.90;;;999.90;;
52888;SDS011;41413;52.770;6.892;2023-09-07T05:31:15;1999.90;;;999.90;;
52888;SDS011;41413;52.770;6.892;2023-09-07T05:33:42;1999.90;;;999.90;;
52888;SDS011;41413;52.770;6.892;2023-09-07T05:36:09;1999.90;;;999.90;;
52888;SDS011;41413;52.770;6.892;2023-09-07T05:38:36;1999.90;;;999.90;;
52888;SDS011;41413;52.770;6.892;2023-09-07T05:41:04;1999.90;;;999.90;;
52888;SDS011;41413;52.770;6.892;2023-09-07T05:43:31;1999.90;;;999.90;;
52888;SDS011;41413;52.770;6.892;2023-09-07T05:45:58;1999.90;;;999.90;;
52888;SDS011;41413;52.770;6.892;2023-09-07T05:48:24;1999.90;;;999.90;;
52888;SDS011;41413;52.770;6.892;2023-09-07T05:50:51;1999.90;;;999.90;;
52888;SDS011;41413;52.770;6.892;2023-09-07T05:53:18;1999.90;;;999.90;;
52888;SDS011;41413;52.770;6.892;2023-09-07T05:55:46;1999.90;;;999.90;;
52888;SDS011;41413;52.770;6.892;2023-09-07T05:58:13;1999.90;;;999.90;;
52888;SDS011;41413;52.770;6.892;2023-09-07T06:00:41;1999.90;;;999.90;;
52888;SDS011;41413;52.770;6.892;2023-09-07T06:03:08;1999.90;;;999.90;;
52888;SDS011;41413;52.770;6.892;2023-09-07T06:05:36;1999.90;;;999.90;;
52888;SDS011;41413;52.770;6.892;2023-09-07T06:08:05;1999.90;;;999.90;;
52888;SDS011;41413;52.770;6.892;2023-09-07T06:10:35;1999.90;;;999.90;;
52888;SDS011;41413;52.770;6.892;2023-09-07T06:13:02;1999.90;;;999.90;;
52888;SDS011;41413;52.770;6.892;2023-09-07T06:15:30;1999.90;;;999.90;;
52888;SDS011;41413;52.770;6.892;2023-09-07T06:17:57;1999.90;;;999.90;;
52888;SDS011;41413;52.770;6.892;2023-09-07T06:20:24;1999.90;;;999.90;;
52888;SDS011;41413;52.770;6.892;2023-09-07T06:22:51;1999.90;;;999.90;;
52888;SDS011;41413;52.770;6.892;2023-09-07T06:25:18;1999.90;;;999.90;;
52888;SDS011;41413;52.770;6.892;2023-09-07T06:27:45;1999.90;;;999.90;;
52888;SDS011;41413;52.770;6.892;2023-09-07T06:30:12;1999.90;;;999.90;;
52888;SDS011;41413;52.770;6.892;2023-09-07T06:32:39;1999.90;;;999.90;;
52888;SDS011;41413;52.770;6.892;2023-09-07T06:35:06;1999.90;;;999.90;;
52888;SDS011;41413;52.770;6.892;2023-09-07T06:37:34;1999.90;;;999.90;;
52888;SDS011;41413;52.770;6.892;2023-09-07T06:40:02;1999.90;;;999.90;;
52888;SDS011;41413;52.770;6.892;2023-09-07T06:42:29;1999.90;;;999.90;;
52888;SDS011;41413;52.770;6.892;2023-09-07T06:44:57;1999.90;;;999.90;;
52888;SDS011;41413;52.770;6.892;2023-09-07T06:47:24;1999.90;;;999.90;;
52888;SDS011;41413;52.770;6.892;2023-09-07T06:49:50;1999.90;;;999.90;;
52888;SDS011;41413;52.770;6.892;2023-09-07T06:52:17;1999.90;;;999.90;;
52888;SDS011;41413;52.770;6.892;2023-09-07T06:54:44;1999.90;;;999.90;;
52888;SDS011;41413;52.770;6.892;2023-09-07T06:57:11;1999.90;;;999.90;;
52888;SDS011;41413;52.770;6.892;2023-09-07T06:59:37;1999.90;;;999.90;;
52888;SDS011;41413;52.770;6.892;2023-09-07T07:02:04;1999.90;;;999.90;;
52888;SDS011;41413;52.770;6.892;2023-09-07T07:04:31;1999.90;;;999.90;;
52888;SDS011;41413;52.770;6.892;2023-09-07T07:06:58;1999.90;;;999.90;;
52888;SDS011;41413;52.770;6.892;2023-09-07T07:09:27;1999.90;;;999.90;;
52888;SDS011;41413;52.770;6.892;2023-09-07T07:11:55;1999.90;;;999.90;;
52888;SDS011;41413;52.770;6.892;2023-09-07T07:14:22;1999.90;;;999.90;;
52888;SDS011;41413;52.770;6.892;2023-09-07T07:16:49;1999.90;;;999.90;;
52888;SDS011;41413;52.770;6.892;2023-09-07T07:19:16;1999.90;;;999.90;;
52888;SDS011;41413;52.770;6.892;2023-09-07T07:21:43;1999.90;;;999.90;;
52888;SDS011;41413;52.770;6.892;2023-09-07T07:24:10;1999.90;;;999.90;;
52888;SDS011;41413;52.770;6.892;2023-09-07T07:26:37;1999.90;;;999.90;;
52888;SDS011;41413;52.770;6.892;2023-09-07T07:29:03;1999.90;;;999.90;;
52888;SDS011;41413;52.770;6.892;2023-09-07T07:31:30;1999.90;;;999.90;;
52888;SDS011;41413;52.770;6.892;2023-09-07T07:33:57;1999.90;;;999.90;;
52888;SDS011;41413;52.770;6.892;2023-09-07T07:36:24;1999.90;;;999.90;;
52888;SDS011;41413;52.770;6.892;2023-09-07T07:38:51;1999.90;;;999.90;;
52888;SDS011;41413;52.770;6.892;2023-09-07T07:41:18;1999.90;;;999.90;;
52888;SDS011;41413;52.770;6.892;2023-09-07T07:43:45;1999.90;;;999.90;;
52888;SDS011;41413;52.770;6.892;2023-09-07T07:46:11;1999.90;;;999.90;;
52888;SDS011;41413;52.770;6.892;2023-09-07T07:48:42;1999.90;;;999.90;;
52888;SDS011;41413;52.770;6.892;2023-09-07T07:51:08;1999.90;;;999.90;;
52888;SDS011;41413;52.770;6.892;2023-09-07T07:53:37;1999.90;;;999.90;;
52888;SDS011;41413;52.770;6.892;2023-09-07T07:56:04;1999.90;;;999.90;;
52888;SDS011;41413;52.770;6.892;2023-09-07T07:58:31;1999.90;;;999.90;;
52888;SDS011;41413;52.770;6.892;2023-09-07T08:00:58;1999.90;;;999.90;;
52888;SDS011;41413;52.770;6.892;2023-09-07T08:03:25;1999.90;;;999.90;;
52888;SDS011;41413;52.770;6.892;2023-09-07T08:05:52;1999.90;;;999.90;;
52888;SDS011;41413;52.770;6.892;2023-09-07T08:08:19;1999.90;;;999.90;;
52888;SDS011;41413;52.770;6.892;2023-09-07T08:10:46;1999.90;;;999.90;;
52888;SDS011;41413;52.770;6.892;2023-09-07T08:13:12;1999.90;;;999.90;;
52888;SDS011;41413;52.770;6.892;2023-09-07T08:15:40;1999.90;;;999.90;;
52888;SDS011;41413;52.770;6.892;2023-09-07T08:18:07;1999.90;;;999.90;;
52888;SDS011;41413;52.770;6.892;2023-09-07T08:20:35;1999.90;;;999.90;;
52888;SDS011;41413;52.770;6.892;2023-09-07T08:23:02;1999.90;;;999.90;;
52888;SDS011;41413;52.770;6.892;2023-09-07T08:25:33;1999.90;;;999.90;;
52888;SDS011;41413;52.770;6.892;2023-09-07T08:28:01;1999.90;;;999.90;;
52888;SDS011;41413;52.770;6.892;2023-09-07T08:30:32;1816.07;;;999.90;;
52888;SDS011;41413;52.770;6.892;2023-09-07T08:33:00;1318.90;;;999.90;;
52888;SDS011;41413;52.770;6.892;2023-09-07T08:35:28;1222.05;;;999.90;;
52888;SDS011;41413;52.770;6.892;2023-09-07T08:37:56;1192.60;;;999.90;;
52888;SDS011;41413;52.770;6.892;2023-09-07T08:40:25;1191.50;;;999.90;;
52888;SDS011;41413;52.770;6.892;2023-09-07T08:42:54;1247.53;;;999.90;;
52888;SDS011;41413;52.770;6.892;2023-09-07T08:45:23;1160.22;;;999.90;;
52888;SDS011;41413;52.770;6.892;2023-09-07T08:47:52;1212.20;;;999.90;;
52888;SDS011;41413;52.770;6.892;2023-09-07T08:50:21;1237.78;;;999.90;;
52888;SDS011;41413;52.770;6.892;2023-09-07T08:52:51;1280.20;;;999.90;;
52888;SDS011;41413;52.770;6.892;2023-09-07T08:55:19;1158.80;;;999.90;;
52888;SDS011;41413;52.770;6.892;2023-09-07T08:57:47;1253.20;;;999.90;;
52888;SDS011;41413;52.770;6.892;2023-09-07T09:00:14;1239.63;;;999.90;;
52888;SDS011;41413;52.770;6.892;2023-09-07T09:02:45;1275.05;;;999.90;;
52888;SDS011;41413;52.770;6.892;2023-09-07T09:05:21;1263.50;;;999.90;;
52888;SDS011;41413;52.770;6.892;2023-09-07T09:08:00;1241.53;;;999.90;;
52888;SDS011;41413;52.770;6.892;2023-09-07T09:10:28;1141.95;;;999.90;;
52888;SDS011;41413;52.770;6.892;2023-09-07T09:12:55;1093.47;;;999.90;;
52888;SDS011;41413;52.770;6.892;2023-09-07T09:15:22;1163.40;;;999.90;;
52888;SDS011;41413;52.770;6.892;2023-09-07T09:17:49;1113.15;;;999.90;;
52888;SDS011;41413;52.770;6.892;2023-09-07T09:20:25;1072.40;;;997.00;;
52888;SDS011;41413;52.770;6.892;2023-09-07T09:22:55;1078.85;;;999.90;;
52888;SDS011;41413;52.770;6.892;2023-09-07T09:25:22;1093.78;;;999.90;;
52888;SDS011;41413;52.770;6.892;2023-09-07T09:27:49;1161.15;;;999.90;;
52888;SDS011;41413;52.770;6.892;2023-09-07T09:30:16;1159.53;;;999.90;;
52888;SDS011;41413;52.770;6.892;2023-09-07T09:32:43;1095.10;;;999.90;;
52888;SDS011;41413;52.770;6.892;2023-09-07T09:35:10;1158.97;;;999.90;;
52888;SDS011;41413;52.770;6.892;2023-09-07T09:37:44;1106.93;;;999.90;;
52888;SDS011;41413;52.770;6.892;2023-09-07T09:40:12;1185.05;;;999.90;;
52888;SDS011;41413;52.770;6.892;2023-09-07T09:42:41;1201.70;;;999.90;;
52888;SDS011;41413;52.770;6.892;2023-09-07T09:45:09;1094.78;;;999.90;;
52888;SDS011;41413;52.770;6.892;2023-09-07T09:47:41;1126.28;;;999.90;;
52888;SDS011;41413;52.770;6.892;2023-09-07T09:50:09;1168.40;;;999.90;;
52888;SDS011;41413;52.770;6.892;2023-09-07T09:52:37;1242.93;;;999.90;;
52888;SDS011;41413;52.770;6.892;2023-09-07T09:55:05;1114.78;;;999.90;;
52888;SDS011;41413;52.770;6.892;2023-09-07T09:57:35;1206.57;;;999.90;;
52888;SDS011;41413;52.770;6.892;2023-09-07T10:00:05;1203.50;;;999.90;;
52888;SDS011;41413;52.770;6.892;2023-09-07T10:02:46;1202.95;;;999.90;;
52888;SDS011;41413;52.770;6.892;2023-09-07T10:05:19;1204.80;;;999.90;;
52888;SDS011;41413;52.770;6.892;2023-09-07T10:07:49;1282.80;;;999.90;;
52888;SDS011;41413;52.770;6.892;2023-09-07T10:10:19;1298.45;;;999.90;;
52888;SDS011;41413;52.770;6.892;2023-09-07T10:12:52;1312.68;;;999.90;;
52888;SDS011;41413;52.770;6.892;2023-09-07T10:15:23;1258.57;;;999.90;;
52888;SDS011;41413;52.770;6.892;2023-09-07T10:20:51;1157.75;;;999.90;;
52888;SDS011;41413;52.770;6.892;2023-09-07T10:23:20;1267.53;;;999.90;;
52888;SDS011;41413;52.770;6.892;2023-09-07T10:25:50;1308.65;;;999.90;;
52888;SDS011;41413;52.770;6.892;2023-09-07T10:28:19;1211.88;;;999.90;;
52888;SDS011;41413;52.770;6.892;2023-09-07T10:30:45;1284.78;;;999.90;;
52888;SDS011;41413;52.770;6.892;2023-09-07T10:33:28;1284.88;;;999.90;;
52888;SDS011;41413;52.770;6.892;2023-09-07T10:35:57;1265.47;;;999.90;;
52888;SDS011;41413;52.770;6.892;2023-09-07T10:38:24;1279.70;;;999.90;;
52888;SDS011;41413;52.770;6.892;2023-09-07T10:40:55;1244.95;;;999.90;;
52888;SDS011;41413;52.770;6.892;2023-09-07T10:43:30;1184.45;;;999.90;;
52888;SDS011;41413;52.770;6.892;2023-09-07T10:45:59;1359.95;;;999.90;;
52888;SDS011;41413;52.770;6.892;2023-09-07T10:48:30;1330.25;;;999.90;;
52888;SDS011;41413;52.770;6.892;2023-09-07T10:50:57;1317.50;;;999.90;;
52888;SDS011;41413;52.770;6.892;2023-09-07T10:53:27;1234.72;;;999.90;;
52888;SDS011;41413;52.770;6.892;2023-09-07T10:55:59;1362.28;;;999.90;;
52888;SDS011;41413;52.770;6.892;2023-09-07T10:58:36;1300.78;;;999.90;;
52888;SDS011;41413;52.770;6.892;2023-09-07T11:01:06;1462.85;;;999.90;;
52888;SDS011;41413;52.770;6.892;2023-09-07T11:03:33;1256.45;;;999.90;;
52888;SDS011;41413;52.770;6.892;2023-09-07T11:06:09;1287.53;;;999.90;;
52888;SDS011;41413;52.770;6.892;2023-09-07T11:08:40;1341.28;;;999.90;;
52888;SDS011;41413;52.770;6.892;2023-09-07T11:11:08;1866.03;;;999.90;;
52888;SDS011;41413;52.770;6.892;2023-09-07T11:13:35;1531.70;;;999.90;;
52888;SDS011;41413;52.770;6.892;2023-09-07T11:16:02;1658.50;;;999.90;;
52888;SDS011;41413;52.770;6.892;2023-09-07T11:18:30;1669.78;;;999.90;;
52888;SDS011;41413;52.770;6.892;2023-09-07T11:20:56;1789.82;;;999.90;;
52888;SDS011;41413;52.770;6.892;2023-09-07T11:23:23;1666.28;;;999.90;;
52888;SDS011;41413;52.770;6.892;2023-09-07T11:25:50;1424.55;;;999.90;;
52888;SDS011;41413;52.770;6.892;2023-09-07T11:28:18;1603.22;;;999.90;;
52888;SDS011;41413;52.770;6.892;2023-09-07T11:30:52;1506.88;;;999.90;;
52888;SDS011;41413;52.770;6.892;2023-09-07T11:33:21;1999.90;;;999.90;;
52888;SDS011;41413;52.770;6.892;2023-09-07T11:35:49;1700.43;;;999.90;;
52888;SDS011;41413;52.770;6.892;2023-09-07T11:38:17;1526.40;;;999.90;;
52888;SDS011;41413;52.770;6.892;2023-09-07T11:40:44;1409.85;;;999.90;;
52888;SDS011;41413;52.770;6.892;2023-09-07T11:43:15;1600.85;;;999.90;;
52888;SDS011;41413;52.770;6.892;2023-09-07T11:45:45;1956.07;;;999.90;;
52888;SDS011;41413;52.770;6.892;2023-09-07T11:48:12;1769.38;;;999.90;;
52888;SDS011;41413;52.770;6.892;2023-09-07T11:50:39;1880.88;;;999.90;;
52888;SDS011;41413;52.770;6.892;2023-09-07T11:53:06;1870.57;;;999.90;;
52888;SDS011;41413;52.770;6.892;2023-09-07T11:55:34;1901.97;;;999.90;;
52888;SDS011;41413;52.770;6.892;2023-09-07T11:58:02;1593.63;;;999.90;;
52888;SDS011;41413;52.770;6.892;2023-09-07T12:00:30;1923.32;;;999.90;;
52888;SDS011;41413;52.770;6.892;2023-09-07T12:02:58;1877.63;;;999.90;;
52888;SDS011;41413;52.770;6.892;2023-09-07T12:05:25;1776.15;;;999.90;;
52888;SDS011;41413;52.770;6.892;2023-09-07T12:07:53;1779.95;;;999.90;;
52888;SDS011;41413;52.770;6.892;2023-09-07T12:10:20;1791.63;;;999.90;;
52888;SDS011;41413;52.770;6.892;2023-09-07T12:12:47;1999.90;;;999.90;;
52888;SDS011;41413;52.770;6.892;2023-09-07T12:15:13;1562.55;;;999.90;;
52888;SDS011;41413;52.770;6.892;2023-09-07T12:17:40;1928.20;;;999.90;;
52888;SDS011;41413;52.770;6.892;2023-09-07T12:20:08;1781.18;;;999.90;;
52888;SDS011;41413;52.770;6.892;2023-09-07T12:22:37;1999.90;;;999.90;;
52888;SDS011;41413;52.770;6.892;2023-09-07T12:25:04;1911.20;;;999.90;;
52888;SDS011;41413;52.770;6.892;2023-09-07T12:27:45;1991.90;;;999.90;;
52888;SDS011;41413;52.770;6.892;2023-09-07T12:30:18;1687.38;;;999.90;;
52888;SDS011;41413;52.770;6.892;2023-09-07T12:32:46;1675.07;;;999.90;;
52888;SDS011;41413;52.770;6.892;2023-09-07T12:35:13;1846.55;;;999.90;;
52888;SDS011;41413;52.770;6.892;2023-09-07T12:37:41;1914.88;;;999.90;;
52888;SDS011;41413;52.770;6.892;2023-09-07T12:40:08;1966.35;;;999.90;;
52888;SDS011;41413;52.770;6.892;2023-09-07T12:42:42;1999.90;;;999.90;;
52888;SDS011;41413;52.770;6.892;2023-09-07T12:45:10;1740.13;;;999.90;;
52888;SDS011;41413;52.770;6.892;2023-09-07T12:47:38;1955.47;;;999.90;;
52888;SDS011;41413;52.770;6.892;2023-09-07T12:50:06;1999.90;;;999.90;;
52888;SDS011;41413;52.770;6.892;2023-09-07T12:52:33;1999.90;;;999.90;;
52888;SDS011;41413;52.770;6.892;2023-09-07T12:55:04;1999.90;;;999.90;;
52888;SDS011;41413;52.770;6.892;2023-09-07T12:57:32;1999.90;;;999.90;;
52888;SDS011;41413;52.770;6.892;2023-09-07T12:59:59;1999.90;;;999.90;;
52888;SDS011;41413;52.770;6.892;2023-09-07T13:02:26;1999.90;;;999.90;;
52888;SDS011;41413;52.770;6.892;2023-09-07T13:04:56;1999.90;;;999.90;;
52888;SDS011;41413;52.770;6.892;2023-09-07T13:07:23;1999.90;;;999.90;;
52888;SDS011;41413;52.770;6.892;2023-09-07T13:09:49;1999.90;;;999.90;;
52888;SDS011;41413;52.770;6.892;2023-09-07T13:12:16;1999.90;;;999.90;;
52888;SDS011;41413;52.770;6.892;2023-09-07T13:14:43;1999.90;;;999.90;;
52888;SDS011;41413;52.770;6.892;2023-09-07T13:17:12;1999.90;;;999.90;;
52888;SDS011;41413;52.770;6.892;2023-09-07T13:19:42;1999.90;;;999.90;;
52888;SDS011;41413;52.770;6.892;2023-09-07T13:22:10;1999.90;;;999.90;;
52888;SDS011;41413;52.770;6.892;2023-09-07T13:24:37;1999.90;;;999.90;;
52888;SDS011;41413;52.770;6.892;2023-09-07T13:27:03;1999.90;;;999.90;;
52888;SDS011;41413;52.770;6.892;2023-09-07T13:29:31;1990.82;;;999.90;;
52888;SDS011;41413;52.770;6.892;2023-09-07T13:31:58;1999.90;;;999.90;;
52888;SDS011;41413;52.770;6.892;2023-09-07T13:34:25;1999.90;;;999.90;;
52888;SDS011;41413;52.770;6.892;2023-09-07T13:36:52;1999.90;;;999.90;;
52888;SDS011;41413;52.770;6.892;2023-09-07T13:39:20;1996.22;;;999.90;;
52888;SDS011;41413;52.770;6.892;2023-09-07T13:41:48;1999.90;;;999.90;;
52888;SDS011;41413;52.770;6.892;2023-09-07T13:44:15;1999.90;;;999.90;;
52888;SDS011;41413;52.770;6.892;2023-09-07T13:46:42;1999.90;;;999.90;;
52888;SDS011;41413;52.770;6.892;2023-09-07T13:49:10;1999.90;;;999.90;;
52888;SDS011;41413;52.770;6.892;2023-09-07T13:51:39;1909.25;;;999.90;;